Arcadia, Ohio
Current Conditions -  °F | °C
As of 8:21 PM on Thursday 27 Nov 2014 (Local Time) from KFDY Reporting Station
Overcast Overcast  
Wind Chill: -7°   Ceiling: 2700
Heat Index: -1°   Visibility: 10mi
Dew Point: -4°   Wind: 13mph
Humidity: 79%   Direction: 280°W
Pressure: 30.28"   Gusts: NA
Location:  41.11°N, 83.52°W
Report Text: KFDY 280121Z AUTO 28011KT 10SM SCT017 BKN027 OVC038 M01/M04 A3028 RMK AO2 T10111044
Loading
Personal Weather Stations






























Interactive Weather Map New forecast layout! Learn more

10-Day Weather Forecast

Advertisements
Track Severe Weather on mobile